createdAt,value
2024-02-29T07:32:51.377Z,30.20
2024-02-29T07:35:23.283Z,19.50
2024-02-29T07:37:55.311Z,32.60
2024-02-29T07:40:27.405Z,40.20
2024-02-29T07:43:01.696Z,30.70
2024-02-29T07:45:33.942Z,32.40
2024-02-29T07:48:06.975Z,31.50
2024-02-29T07:50:38.992Z,32.70
2024-02-29T07:53:11.298Z,27.40
2024-02-29T07:55:43.343Z,36.80
2024-02-29T07:58:15.403Z,23.60
2024-02-29T08:00:47.624Z,31.70
2024-02-29T08:03:19.476Z,35.20
2024-02-29T08:05:52.005Z,34.60
2024-02-29T08:08:24.396Z,38.80
2024-02-29T08:10:56.297Z,39.90
2024-02-29T08:13:28.093Z,40.60
2024-02-29T08:16:00.363Z,31.30
2024-02-29T08:18:32.360Z,34.40
2024-02-29T08:21:05.333Z,33.10
2024-02-29T08:23:37.829Z,33.90
2024-02-29T08:26:13.918Z,43.30
2024-02-29T08:28:46.669Z,31.40
2024-02-29T08:33:49.557Z,31.50
2024-02-29T08:36:22.582Z,33.20
2024-02-29T08:41:25.641Z,28.20
2024-02-29T08:43:57.751Z,21.30
2024-02-29T08:46:29.869Z,23.10
2024-02-29T08:49:03.930Z,35.60
2024-02-29T08:51:36.999Z,28.60
2024-02-29T08:54:10.804Z,26.10
2024-02-29T08:56:43.072Z,32.50
2024-02-29T08:59:17.042Z,33.10
2024-02-29T09:01:50.587Z,33.20
2024-02-29T09:04:23.922Z,33.90
2024-02-29T09:06:56.077Z,36.20
2024-02-29T09:09:29.089Z,35.90
2024-02-29T09:12:01.107Z,41.20
2024-02-29T09:14:33.121Z,25.40
2024-02-29T09:17:05.584Z,32.60
2024-02-29T09:19:37.854Z,34.70
2024-02-29T09:22:10.264Z,33.20
2024-02-29T09:24:42.256Z,32.40
2024-02-29T09:27:15.004Z,34.80
2024-02-29T09:29:46.945Z,30.90
2024-02-29T09:32:19.351Z,31.60
2024-02-29T09:34:52.443Z,32.60
2024-02-29T09:37:25.139Z,35.40
2024-02-29T09:39:57.132Z,36.50
2024-02-29T09:42:30.565Z,35.60
2024-02-29T09:45:03.453Z,37.60
2024-02-29T09:47:37.380Z,36.30
2024-02-29T09:50:12.414Z,40.30
2024-02-29T09:52:47.656Z,41.20
2024-02-29T09:55:26.579Z,35.30
2024-02-29T09:58:01.035Z,37.60
2024-02-29T10:00:33.539Z,45.10
2024-02-29T10:03:07.107Z,35.30
2024-02-29T10:05:39.389Z,37.30
2024-02-29T10:08:11.300Z,24.70
2024-02-29T10:10:43.355Z,43.90
2024-02-29T10:13:15.250Z,41.60
2024-02-29T10:15:51.922Z,43.30
2024-02-29T10:18:23.933Z,47.30
2024-02-29T10:20:55.963Z,46.60
2024-02-29T10:23:31.340Z,38.70
2024-02-29T10:26:03.435Z,41.80
2024-02-29T10:28:35.549Z,47.30
2024-02-29T10:31:08.460Z,30.10
2024-02-29T10:33:49.507Z,40.70
2024-02-29T10:36:22.411Z,49.80
2024-02-29T10:38:56.307Z,46.60
2024-02-29T10:41:32.401Z,42.40
2024-02-29T10:44:05.822Z,50.20
2024-02-29T10:46:39.509Z,51.20
2024-02-29T10:49:18.415Z,44.40
2024-02-29T10:51:56.305Z,46.00
2024-02-29T10:54:36.868Z,46.30
2024-02-29T10:57:17.143Z,43.30
2024-02-29T10:59:54.407Z,43.70
2024-02-29T11:02:27.492Z,43.30
2024-02-29T11:05:00.392Z,49.40
2024-02-29T11:07:32.604Z,51.00
2024-02-29T11:10:07.053Z,42.80
2024-02-29T11:12:43.677Z,58.70
2024-02-29T11:15:15.713Z,43.90
2024-02-29T11:17:50.560Z,49.80
2024-02-29T11:20:25.887Z,57.60
2024-02-29T11:23:11.230Z,52.30
2024-02-29T11:25:45.927Z,55.80
2024-02-29T11:28:19.097Z,53.60
2024-02-29T11:30:53.124Z,50.30
2024-02-29T11:33:25.567Z,59.10
2024-02-29T11:35:58.580Z,46.30
2024-02-29T11:38:36.502Z,55.70
2024-02-29T11:41:20.717Z,52.30
2024-02-29T11:43:53.341Z,49.80
2024-02-29T11:46:25.429Z,47.80
2024-02-29T11:48:57.936Z,35.90
2024-02-29T11:54:02.052Z,56.40
2024-02-29T11:56:34.153Z,54.70
2024-02-29T11:59:10.348Z,51.80
2024-02-29T12:01:45.019Z,51.40
2024-02-29T12:04:17.725Z,59.20
2024-02-29T12:06:49.748Z,51.70
2024-02-29T12:09:22.338Z,55.10
2024-02-29T12:11:54.648Z,52.50
2024-02-29T12:14:27.075Z,61.30
2024-02-29T12:16:59.348Z,55.90
2024-02-29T12:19:31.918Z,55.90
2024-02-29T12:24:38.096Z,55.00
2024-02-29T12:27:11.180Z,51.30
2024-02-29T12:29:43.769Z,63.30
2024-02-29T12:32:18.443Z,56.10
2024-02-29T12:34:52.998Z,50.30
2024-02-29T12:37:26.089Z,53.70
2024-02-29T12:40:00.546Z,57.10
2024-02-29T12:42:34.607Z,58.70
2024-02-29T12:45:10.036Z,55.90
2024-02-29T12:47:42.143Z,54.60
2024-02-29T12:50:14.315Z,56.40
2024-02-29T12:52:48.841Z,60.80
2024-02-29T12:55:21.101Z,66.80
2024-02-29T12:57:53.390Z,69.00
2024-02-29T13:00:26.812Z,57.80
2024-02-29T13:02:58.871Z,56.80
2024-02-29T13:05:31.846Z,54.50
2024-02-29T13:08:04.996Z,63.70
2024-02-29T13:10:36.922Z,67.20
2024-02-29T13:13:10.621Z,53.80
2024-02-29T13:15:43.434Z,63.00
2024-02-29T13:18:15.463Z,64.00
2024-02-29T13:20:47.375Z,62.90
2024-02-29T13:23:19.371Z,43.50
2024-02-29T13:25:52.039Z,57.40
2024-02-29T13:28:24.661Z,58.40
2024-02-29T13:30:56.686Z,57.30
2024-02-29T13:33:30.987Z,39.50
2024-02-29T13:36:03.179Z,56.00
2024-02-29T13:38:36.511Z,62.90
2024-02-29T13:41:09.117Z,57.70
2024-02-29T13:46:14.003Z,54.80
2024-02-29T13:48:48.411Z,57.90
2024-02-29T13:51:20.634Z,62.90
2024-02-29T13:53:53.502Z,53.20
2024-02-29T13:56:26.787Z,61.70
2024-02-29T13:58:59.215Z,58.00
2024-02-29T14:01:31.371Z,59.20
2024-02-29T14:04:03.508Z,57.80
2024-02-29T14:06:35.931Z,61.60
2024-02-29T14:09:08.375Z,68.70
2024-02-29T14:11:40.700Z,71.20
2024-02-29T14:14:12.867Z,67.40
2024-02-29T14:16:45.467Z,73.40
2024-02-29T14:19:17.497Z,70.70
2024-02-29T14:21:49.521Z,76.90
2024-02-29T14:24:21.673Z,66.80
2024-02-29T14:26:53.772Z,70.60
2024-02-29T14:29:25.745Z,77.70
2024-02-29T14:31:58.098Z,76.20
2024-02-29T14:34:30.042Z,82.10
2024-02-29T14:37:02.840Z,89.10
2024-02-29T14:39:34.904Z,81.50
2024-02-29T14:42:07.383Z,84.20
2024-02-29T14:44:39.377Z,78.80
2024-02-29T14:47:11.339Z,62.80
2024-02-29T14:49:45.474Z,59.90
2024-02-29T14:52:17.571Z,84.40
2024-02-29T14:54:49.597Z,70.20
2024-02-29T14:57:21.582Z,74.60
2024-02-29T14:59:54.276Z,75.50
2024-02-29T15:04:57.954Z,74.30
2024-02-29T15:07:30.085Z,73.00
2024-02-29T15:10:02.518Z,55.60
2024-02-29T15:15:05.859Z,76.00
2024-02-29T15:20:11.808Z,76.80
2024-02-29T15:22:45.260Z,87.90
2024-02-29T15:25:18.548Z,73.70
2024-02-29T15:27:55.193Z,74.20
2024-02-29T15:30:27.795Z,75.40
2024-02-29T15:32:59.708Z,73.90
2024-02-29T15:35:31.600Z,79.00
2024-02-29T15:38:03.629Z,67.20
2024-02-29T15:40:35.672Z,79.90
2024-02-29T15:45:38.761Z,79.90
2024-02-29T15:48:11.773Z,53.10
2024-02-29T15:50:46.706Z,78.40
2024-02-29T15:53:18.803Z,72.30
2024-02-29T15:55:51.927Z,55.00
2024-02-29T15:58:23.861Z,84.20
2024-02-29T16:00:55.901Z,82.80
2024-02-29T16:03:28.101Z,55.90
2024-02-29T16:06:00.256Z,77.90
2024-02-29T16:08:32.205Z,77.10
2024-02-29T16:11:04.964Z,85.30
2024-02-29T16:13:37.343Z,79.60
2024-02-29T16:16:09.919Z,76.80
2024-02-29T16:18:42.035Z,77.10
2024-02-29T16:21:14.230Z,71.70
2024-02-29T16:23:46.272Z,95.00
2024-02-29T16:26:18.311Z,50.50
2024-02-29T16:28:50.333Z,78.70
2024-02-29T16:31:22.242Z,55.90
2024-02-29T16:33:54.148Z,72.20
2024-02-29T16:36:26.083Z,70.70
2024-02-29T16:38:58.056Z,76.20
2024-02-29T16:41:30.429Z,75.20
2024-02-29T16:44:02.453Z,70.30
2024-02-29T16:46:34.450Z,70.10
2024-02-29T16:49:06.547Z,70.80
2024-02-29T16:51:38.446Z,53.40
2024-02-29T16:54:10.688Z,52.00
2024-02-29T16:56:46.152Z,64.10
2024-02-29T16:59:18.620Z,71.80
2024-02-29T17:01:50.676Z,69.60
2024-02-29T17:04:23.395Z,59.30
2024-02-29T17:09:26.321Z,70.20
2024-02-29T17:11:58.561Z,75.50
2024-02-29T17:14:30.866Z,74.00
2024-02-29T17:17:04.455Z,72.10
2024-02-29T17:19:36.343Z,73.80
2024-02-29T17:22:08.667Z,69.10
2024-02-29T17:24:40.965Z,68.20
2024-02-29T17:27:17.081Z,64.40
2024-02-29T17:29:49.772Z,70.70
2024-02-29T17:34:52.989Z,74.90
2024-02-29T17:37:29.318Z,73.00
2024-02-29T17:40:03.264Z,77.00
2024-02-29T17:42:35.578Z,69.90
2024-02-29T17:45:11.116Z,73.10
2024-02-29T17:47:43.686Z,81.90
2024-02-29T17:50:17.819Z,66.90
2024-02-29T17:52:50.401Z,63.60
2024-02-29T17:55:22.805Z,75.50
2024-02-29T17:57:55.444Z,75.30
2024-02-29T18:00:27.933Z,75.70
2024-02-29T18:03:02.110Z,74.60
2024-02-29T18:05:34.640Z,70.50
2024-02-29T18:08:08.412Z,68.40
2024-02-29T18:10:40.751Z,71.20
2024-02-29T18:13:13.024Z,78.60
2024-02-29T18:15:45.372Z,82.10
2024-02-29T18:18:18.099Z,78.80
2024-02-29T18:20:50.496Z,84.40
2024-02-29T18:23:23.904Z,80.20
2024-02-29T18:25:57.267Z,71.30
2024-02-29T18:28:29.666Z,77.40
2024-02-29T18:31:03.807Z,79.80
2024-02-29T18:33:37.058Z,84.60
2024-02-29T18:36:11.087Z,89.60
2024-02-29T18:38:43.230Z,90.00
2024-02-29T18:41:15.437Z,84.80
2024-02-29T18:43:47.893Z,82.50
2024-02-29T18:46:20.287Z,87.60
2024-02-29T18:48:52.485Z,72.90
2024-02-29T18:51:24.732Z,78.90
2024-02-29T18:53:57.029Z,90.40
2024-02-29T18:56:29.222Z,74.60
2024-02-29T18:59:01.367Z,85.30
2024-02-29T19:01:33.651Z,74.80
2024-02-29T19:04:06.397Z,88.40
2024-02-29T19:06:38.450Z,92.30
2024-02-29T19:09:11.268Z,76.90
2024-02-29T19:11:43.537Z,75.60
2024-02-29T19:14:15.991Z,85.50
2024-02-29T19:16:48.266Z,83.30
2024-02-29T19:19:21.412Z,81.70
2024-02-29T19:21:53.483Z,78.30
2024-02-29T19:24:25.504Z,73.10
2024-02-29T19:26:57.471Z,89.50
2024-02-29T19:29:30.070Z,80.50
2024-02-29T19:32:02.022Z,74.80
2024-02-29T19:34:34.180Z,90.90
2024-02-29T19:37:06.676Z,80.60
2024-02-29T19:39:41.073Z,83.10
2024-02-29T19:42:13.522Z,77.60
2024-02-29T19:44:45.957Z,81.20
2024-02-29T19:47:21.858Z,88.90
2024-02-29T19:49:53.867Z,86.40
2024-02-29T19:52:26.322Z,86.40
2024-02-29T19:55:02.893Z,85.40
2024-02-29T19:57:40.981Z,86.70
2024-02-29T20:00:17.944Z,89.60
2024-02-29T20:02:51.499Z,91.10
2024-02-29T20:05:23.833Z,87.50
2024-02-29T20:07:55.876Z,93.20
2024-02-29T20:10:28.028Z,83.30
2024-02-29T20:13:00.810Z,94.60
2024-02-29T20:18:04.525Z,77.90
2024-02-29T20:20:36.668Z,89.60
2024-02-29T20:23:09.152Z,89.50
2024-02-29T20:28:11.762Z,90.90
2024-02-29T20:30:43.760Z,89.10
2024-02-29T20:33:16.665Z,88.40
2024-02-29T20:35:49.266Z,92.90
2024-02-29T20:38:21.066Z,98.50
2024-02-29T20:40:52.934Z,73.20
2024-02-29T20:43:25.123Z,98.10
2024-02-29T20:45:57.257Z,90.60
2024-02-29T20:48:29.428Z,100.70
2024-02-29T20:51:01.593Z,91.40
2024-02-29T20:53:33.812Z,92.80
2024-02-29T20:56:06.437Z,99.70
2024-02-29T20:58:39.008Z,91.70
2024-02-29T21:01:10.897Z,91.10
2024-02-29T21:03:42.984Z,70.20
2024-02-29T21:06:14.958Z,99.70
2024-02-29T21:08:46.871Z,99.20
2024-02-29T21:11:19.647Z,98.50
2024-02-29T21:16:22.360Z,106.10
2024-02-29T21:18:54.548Z,107.70
2024-02-29T21:21:26.780Z,110.90
2024-02-29T21:23:58.967Z,99.20
2024-02-29T21:26:31.254Z,101.40
2024-02-29T21:31:36.454Z,110.80
2024-02-29T21:34:08.548Z,105.80
2024-02-29T21:36:40.657Z,107.00
2024-02-29T21:39:12.844Z,106.30
2024-02-29T21:41:44.978Z,95.70
2024-02-29T21:44:17.073Z,92.10
2024-02-29T21:46:51.174Z,86.90
2024-02-29T21:49:24.928Z,96.10
2024-02-29T21:51:57.822Z,105.30
2024-02-29T21:54:31.434Z,87.70
2024-02-29T21:57:03.582Z,95.60
2024-02-29T21:59:35.757Z,89.20
2024-02-29T22:02:08.461Z,100.20
2024-02-29T22:04:41.371Z,98.30
2024-02-29T22:09:44.295Z,91.40
2024-02-29T22:12:16.168Z,104.80
2024-02-29T22:14:47.929Z,92.40
2024-02-29T22:17:19.811Z,96.00
2024-02-29T22:19:51.879Z,97.60
2024-02-29T22:22:23.947Z,100.00
2024-02-29T22:24:56.055Z,90.70
2024-02-29T22:27:27.987Z,97.40
2024-02-29T22:29:59.822Z,97.70
2024-02-29T22:32:31.862Z,73.20
2024-02-29T22:35:07.730Z,102.40
2024-02-29T22:37:39.806Z,101.70
2024-02-29T22:40:13.769Z,103.10
2024-02-29T22:42:46.662Z,99.50
2024-02-29T22:45:18.547Z,99.90
2024-02-29T22:47:50.704Z,101.20
2024-02-29T22:50:22.577Z,105.40
2024-02-29T22:52:54.529Z,98.20
2024-02-29T22:55:26.459Z,103.00
2024-02-29T22:57:58.436Z,100.50
2024-02-29T23:00:33.863Z,100.30
2024-02-29T23:03:06.214Z,101.90
2024-02-29T23:05:38.885Z,97.40
2024-02-29T23:10:43.577Z,101.10
2024-02-29T23:15:46.374Z,103.00
2024-02-29T23:18:18.381Z,101.70
2024-02-29T23:20:51.250Z,116.00
2024-02-29T23:23:23.129Z,114.80
2024-02-29T23:25:55.109Z,106.90
2024-02-29T23:28:27.554Z,111.00
2024-02-29T23:30:59.600Z,112.00
2024-02-29T23:33:31.712Z,118.00
2024-02-29T23:36:04.597Z,112.50
2024-02-29T23:41:09.130Z,118.50
2024-02-29T23:43:41.071Z,112.20
2024-02-29T23:46:12.940Z,114.40
2024-02-29T23:48:44.807Z,90.60
2024-02-29T23:51:17.650Z,121.20
2024-02-29T23:53:50.193Z,118.00
2024-02-29T23:56:22.129Z,117.50
2024-02-29T23:58:54.085Z,124.70
